Ann Arbor, MI

6:22 AM EST on February 10, 2016 (GMT -0500)
Polo Fields | | Change Station
CLOSE
Current Station
Personal Weather Station
Location: Ann Arbor, MI
Elevation: 912 ft
Nearby Weather Stations

Elev 912 ft 42.27 °N, 83.82 °W | Updated 22 seconds ago

Overcast
Overcast
18.1 °F
Feels Like 9 °F
N
6.3
Wind Variable Wind from West
Gusts 11.4 mph

Today
High -- | Low -- °F
--% Chance of Precip.
Yesterday
High -- | Low -- °F
Precip. -- in
Pressure 29.79 in
Visibility 10.0 miles
Clouds Few 2400 ft
Mostly Cloudy 3500 ft
Overcast 7000 ft
Windchill 9 °F
Dew Point 14 °F
Humidity 85%
Rainfall 0.00 in
Snow Depth Not available.
7:38 AM 6:00 PM
Waxing Crescent, 5% visible
METAR KARB 101053Z AUTO 30014KT 10SM FEW024 BKN035 OVC070 M07/M11 A2975 RMK AO2 SNE0955 SLP087 P0000 T10671106 TSNO
Pressure 29.79 in
Visibility 10.0 miles
Clouds Few 2400 ft
Mostly Cloudy 3500 ft
Overcast 7000 ft
Windchill 9 °F
Dew Point 14 °F
Humidity 85%
Rainfall 0.00 in
Snow Depth Not available.
7:38 AM 6:00 PM
Waxing Crescent, 5% visible
METAR KARB 101053Z AUTO 30014KT 10SM FEW024 BKN035 OVC070 M07/M11 A2975 RMK AO2 SNE0955 SLP087 P0000 T10671106 TSNO

10-Day Weather Forecast

Almanac

Astronomy

Feb. 10, 2016 Rise Set
Actual Time
Civil Twilight
Nautical Twilight
Astronomical Twilight
Moon
Length of Visible Light
Length of Day
Tomorrow will be .
, % of the Moon is Illuminated

Today's Extremes

State Highs State Lows

Community

WunderPhotos

Upload Photos

1,891,830 photos uploaded!

WunderBlog® & News

Nearby

Air Quality

  Air Quality AQ Index Pollutant
Not available.

Snow Depth

Station Depth Elevation

Earthquake Activity

City Distance Mag. Time & Date
Minimum magnitude displayed is 2.5.

Coastal Water Temperatures

Place Temperature

Stations

Nearby Weather Stations

Station Location Temp. Windchill Dew Point Humidity Wind Precip. Elev Updated Type
                   

Watches & Warnings

There are currently no watches in effect.